createdAt,value
2022-09-28T00:01:34.180Z,14.85
2022-09-28T00:06:37.719Z,14.80
2022-09-28T00:11:40.681Z,14.74
2022-09-28T00:16:44.779Z,14.67
2022-09-28T00:21:48.232Z,14.59
2022-09-28T00:26:56.972Z,14.54
2022-09-28T00:32:05.814Z,14.50
2022-09-28T00:37:09.614Z,14.42
2022-09-28T00:42:18.855Z,14.44
2022-09-28T00:47:27.450Z,14.47
2022-09-28T00:52:39.650Z,14.48
2022-09-28T00:57:47.639Z,14.52
2022-09-28T01:02:51.101Z,14.38
2022-09-28T01:07:57.236Z,14.36
2022-09-28T01:13:00.501Z,14.35
2022-09-28T01:18:06.150Z,14.34
2022-09-28T01:23:13.169Z,14.42
2022-09-28T01:28:19.716Z,14.61
2022-09-28T01:33:26.843Z,14.70
2022-09-28T01:38:40.294Z,14.72
2022-09-28T01:43:48.622Z,14.67
2022-09-28T01:48:58.240Z,14.62
2022-09-28T01:54:10.920Z,14.54
2022-09-28T01:59:17.579Z,14.45
2022-09-28T02:04:36.345Z,14.35
2022-09-28T02:09:44.822Z,14.24
2022-09-28T02:14:50.388Z,14.19
2022-09-28T02:19:53.293Z,14.11
2022-09-28T02:25:08.693Z,14.06
2022-09-28T02:30:12.001Z,13.89
2022-09-28T02:35:18.832Z,13.76
2022-09-28T02:40:29.381Z,13.64
2022-09-28T02:45:41.223Z,13.50
2022-09-28T02:51:06.082Z,13.38
2022-09-28T02:56:14.859Z,13.33
2022-09-28T03:01:41.534Z,13.26
2022-09-28T03:06:59.462Z,13.16
2022-09-28T03:12:08.882Z,13.09
2022-09-28T03:17:12.043Z,13.08
2022-09-28T03:22:14.843Z,13.10
2022-09-28T03:27:17.655Z,13.13
2022-09-28T03:32:20.547Z,13.17
2022-09-28T03:37:23.557Z,13.16
2022-09-28T03:42:26.459Z,13.15
2022-09-28T03:47:29.374Z,13.18
2022-09-28T03:52:32.680Z,13.26
2022-09-28T03:57:35.579Z,13.32
2022-09-28T04:02:38.653Z,13.35
2022-09-28T04:07:41.593Z,13.33
2022-09-28T04:12:46.150Z,13.33
2022-09-28T04:17:49.042Z,13.34
2022-09-28T04:22:51.943Z,13.37
2022-09-28T04:28:13.383Z,13.37
2022-09-28T04:33:16.287Z,13.35
2022-09-28T04:38:35.619Z,13.33
2022-09-28T04:43:42.063Z,13.34
2022-09-28T04:48:45.674Z,13.36
2022-09-28T04:53:48.495Z,13.34
2022-09-28T04:58:52.842Z,13.31
2022-09-28T05:03:56.496Z,13.23
2022-09-28T05:08:59.556Z,13.29
2022-09-28T05:14:02.738Z,13.30
2022-09-28T05:19:06.591Z,13.33
2022-09-28T05:24:10.806Z,13.34
2022-09-28T05:29:13.755Z,13.26
2022-09-28T05:34:16.594Z,13.23
2022-09-28T05:39:19.436Z,13.25
2022-09-28T05:44:22.337Z,13.24
2022-09-28T05:49:25.144Z,13.18
2022-09-28T05:54:28.042Z,13.19
2022-09-28T05:59:31.158Z,13.22
2022-09-28T06:04:34.057Z,13.24
2022-09-28T06:09:36.856Z,13.26
2022-09-28T06:14:40.475Z,13.30
2022-09-28T06:19:44.303Z,13.35
2022-09-28T06:24:47.126Z,13.43
2022-09-28T06:29:50.008Z,13.48
2022-09-28T06:34:56.175Z,13.49
2022-09-28T06:39:59.502Z,13.59
2022-09-28T06:45:03.022Z,13.65
2022-09-28T06:50:15.246Z,13.69
2022-09-28T06:55:18.151Z,13.75
2022-09-28T07:00:21.057Z,13.75
2022-09-28T07:05:27.555Z,13.71
2022-09-28T07:10:31.906Z,13.77
2022-09-28T07:15:34.663Z,13.83
2022-09-28T07:20:48.652Z,13.80
2022-09-28T07:25:54.936Z,13.70
2022-09-28T07:30:58.413Z,13.78
2022-09-28T07:36:06.592Z,13.91
2022-09-28T07:41:12.342Z,14.01
2022-09-28T07:46:17.047Z,13.97
2022-09-28T07:51:21.383Z,13.77
2022-09-28T07:56:25.562Z,13.71
2022-09-28T08:01:30.935Z,13.74
2022-09-28T08:06:33.824Z,13.86
2022-09-28T08:11:36.732Z,13.86
2022-09-28T08:16:39.777Z,13.87
2022-09-28T08:21:45.202Z,13.97
2022-09-28T08:26:48.615Z,14.07
2022-09-28T08:31:51.520Z,14.20
2022-09-28T08:36:57.433Z,14.44
2022-09-28T08:42:03.270Z,14.64
2022-09-28T08:47:33.612Z,14.98
2022-09-28T08:52:40.701Z,15.37
2022-09-28T08:57:52.635Z,15.57
2022-09-28T09:02:56.545Z,15.76
2022-09-28T09:08:13.185Z,15.94
2022-09-28T09:13:40.768Z,16.16
2022-09-28T09:18:52.477Z,16.32
2022-09-28T09:23:57.946Z,16.80
2022-09-28T09:29:18.970Z,17.11
2022-09-28T09:34:41.842Z,17.08
2022-09-28T09:39:55.914Z,17.07
2022-09-28T09:45:25.338Z,17.47
2022-09-28T09:50:39.533Z,17.96
2022-09-28T09:55:45.683Z,18.61
2022-09-28T10:00:52.834Z,19.73
2022-09-28T10:06:00.501Z,20.61
2022-09-28T10:11:08.569Z,20.13
2022-09-28T10:16:11.671Z,19.07
2022-09-28T10:21:17.005Z,18.59
2022-09-28T10:26:25.518Z,18.27
2022-09-28T10:31:42.227Z,18.01
2022-09-28T10:36:52.733Z,18.11
2022-09-28T10:41:56.002Z,18.22
2022-09-28T10:47:04.269Z,18.36
2022-09-28T10:52:33.097Z,18.26
2022-09-28T10:57:37.660Z,17.65
2022-09-28T11:02:42.753Z,17.18
2022-09-28T11:07:48.138Z,17.67
2022-09-28T11:12:52.294Z,17.89
2022-09-28T11:17:55.500Z,17.58
2022-09-28T11:23:06.513Z,16.55
2022-09-28T11:28:24.352Z,15.86
2022-09-28T11:33:36.474Z,16.02
2022-09-28T11:38:57.704Z,16.21
2022-09-28T11:44:15.706Z,16.44
2022-09-28T11:49:33.115Z,16.68
2022-09-28T11:54:52.598Z,17.20
2022-09-28T12:00:07.894Z,16.96
2022-09-28T12:05:17.073Z,16.92
2022-09-28T12:10:35.671Z,17.39
2022-09-28T12:16:12.948Z,16.97
2022-09-28T12:21:27.713Z,16.59
2022-09-28T12:26:42.086Z,16.34
2022-09-28T12:31:45.004Z,16.20
2022-09-28T12:36:53.831Z,16.20
2022-09-28T12:42:22.591Z,16.12
2022-09-28T12:47:31.176Z,16.02
2022-09-28T12:52:57.040Z,16.15
2022-09-28T12:58:08.221Z,16.43
2022-09-28T13:03:35.600Z,16.63
2022-09-28T13:08:55.404Z,16.60
2022-09-28T13:14:21.441Z,16.19
2022-09-28T13:19:29.795Z,15.73
2022-09-28T13:24:37.532Z,15.46
2022-09-28T13:29:42.553Z,15.42
2022-09-28T13:34:50.691Z,15.42
2022-09-28T13:40:06.263Z,15.36
2022-09-28T13:45:21.157Z,15.16
2022-09-28T13:50:27.852Z,14.96
2022-09-28T13:55:56.369Z,15.30
2022-09-28T14:01:11.923Z,15.88
2022-09-28T14:06:31.555Z,15.81
2022-09-28T14:11:35.019Z,15.57
2022-09-28T14:16:39.902Z,15.29
2022-09-28T14:22:16.925Z,15.00
2022-09-28T14:27:43.894Z,14.63
2022-09-28T14:32:57.883Z,14.32
2022-09-28T14:38:24.619Z,14.31
2022-09-28T14:43:45.650Z,15.15
2022-09-28T14:48:54.633Z,15.82
2022-09-28T14:54:13.444Z,15.69
2022-09-28T14:59:25.381Z,15.22
2022-09-28T15:04:31.207Z,14.80
2022-09-28T15:09:36.602Z,14.44
2022-09-28T15:14:59.497Z,14.12
2022-09-28T15:20:30.151Z,14.22
2022-09-28T15:25:34.170Z,14.75
2022-09-28T15:30:38.494Z,14.93
2022-09-28T15:35:42.954Z,14.95
2022-09-28T15:40:47.708Z,14.94
2022-09-28T15:46:04.264Z,14.87
2022-09-28T15:51:11.991Z,14.73
2022-09-28T15:56:16.109Z,14.56
2022-09-28T16:01:50.769Z,14.36
2022-09-28T16:07:12.578Z,14.25
2022-09-28T16:12:15.478Z,14.07
2022-09-28T16:17:33.481Z,13.86
2022-09-28T16:22:38.286Z,13.60
2022-09-28T16:27:44.724Z,13.45
2022-09-28T16:32:54.844Z,13.33
2022-09-28T16:37:59.395Z,13.24
2022-09-28T16:43:06.198Z,13.18
2022-09-28T16:48:14.321Z,13.05
2022-09-28T16:53:36.995Z,12.91
2022-09-28T16:58:39.989Z,12.82
2022-09-28T17:03:47.027Z,12.75
2022-09-28T17:08:50.297Z,12.64
2022-09-28T17:14:00.252Z,12.58
2022-09-28T17:19:03.177Z,12.62
2022-09-28T17:24:06.590Z,12.72
2022-09-28T17:29:14.533Z,12.72
2022-09-28T17:34:18.235Z,12.71
2022-09-28T17:39:21.444Z,12.74
2022-09-28T17:44:24.758Z,12.80
2022-09-28T17:49:28.174Z,12.75
2022-09-28T17:54:31.080Z,12.61
2022-09-28T17:59:33.981Z,12.54
2022-09-28T18:04:51.362Z,12.44
2022-09-28T18:09:56.994Z,12.33
2022-09-28T18:14:59.795Z,12.24
2022-09-28T18:20:02.702Z,12.16
2022-09-28T18:25:06.620Z,12.04
2022-09-28T18:30:10.228Z,11.97
2022-09-28T18:35:13.202Z,11.99
2022-09-28T18:40:16.514Z,12.01
2022-09-28T18:45:19.474Z,12.00
2022-09-28T18:50:22.273Z,12.00
2022-09-28T18:55:28.965Z,12.03
2022-09-28T19:00:31.870Z,12.06
2022-09-28T19:05:35.294Z,12.08
2022-09-28T19:10:38.199Z,12.12
2022-09-28T19:15:41.019Z,12.15
2022-09-28T19:20:44.816Z,12.12
2022-09-28T19:25:47.622Z,12.16
2022-09-28T19:36:12.322Z,12.28
2022-09-28T19:41:43.132Z,12.31
2022-09-28T19:46:47.161Z,12.31
2022-09-28T19:52:14.187Z,12.20
2022-09-28T19:57:19.793Z,12.15
2022-09-28T20:02:23.070Z,12.14
2022-09-28T20:07:26.013Z,12.13
2022-09-28T20:12:29.127Z,12.07
2022-09-28T20:17:32.028Z,12.05
2022-09-28T20:22:34.827Z,11.88
2022-09-28T20:27:39.473Z,11.91
2022-09-28T20:32:45.093Z,11.91
2022-09-28T20:37:52.042Z,11.82
2022-09-28T20:42:55.456Z,11.70
2022-09-28T20:48:04.604Z,11.65
2022-09-28T20:53:07.402Z,11.70
2022-09-28T20:58:10.309Z,11.73
2022-09-28T21:03:13.149Z,11.83
2022-09-28T21:08:16.123Z,11.93
2022-09-28T21:13:19.025Z,12.02
2022-09-28T21:18:22.848Z,12.10
2022-09-28T21:23:25.651Z,12.15
2022-09-28T21:28:28.666Z,12.15
2022-09-28T21:33:32.010Z,12.12
2022-09-28T21:38:35.080Z,12.03
2022-09-28T21:43:37.983Z,11.98
2022-09-28T21:48:41.192Z,11.98
2022-09-28T21:53:44.206Z,11.97
2022-09-28T21:58:47.410Z,11.98
2022-09-28T22:03:53.828Z,12.00
2022-09-28T22:08:57.711Z,11.95
2022-09-28T22:14:00.737Z,11.84
2022-09-28T22:19:03.740Z,11.79
2022-09-28T22:24:07.555Z,11.73
2022-09-28T22:29:10.979Z,11.74
2022-09-28T22:34:13.881Z,11.75
2022-09-28T22:39:16.795Z,11.67
2022-09-28T22:44:20.307Z,11.66
2022-09-28T22:49:23.924Z,11.69
2022-09-28T22:54:27.135Z,11.67
2022-09-28T22:59:30.041Z,11.63
2022-09-28T23:04:33.048Z,11.66
2022-09-28T23:09:36.260Z,11.73
2022-09-28T23:14:39.058Z,11.77
2022-09-28T23:19:41.963Z,11.80
2022-09-28T23:24:44.871Z,11.84
2022-09-28T23:29:49.117Z,11.89
2022-09-28T23:34:52.016Z,11.92
2022-09-28T23:39:54.912Z,11.87
2022-09-28T23:44:57.871Z,11.77
2022-09-28T23:50:00.719Z,11.74
2022-09-28T23:55:04.240Z,11.62
